Rhapsody Of The Seas — C6UA2 — position and weather

sailwx.info

Track history (hours):
 
Tides and Currents Weather Stations Pressure Air Temp Water Temp Dewpoint Dewpoint Depression Visibility Wind Speed Wind Dir Waves Ship Positions

Rhapsody Of The Seas

Last reported at 2017-Oct-19 02:14 UTC. Time now 2017-Oct-20 19:50 UTC.
Position N 40°43' E 018°54'.

Type: Passenger vessel. MMSI: 311805000.

Date/timePositionNaut miles runAvg speedWind from/ knotsBaromVisibWave heightAir tempDewpointWater temp
2017-Oct-19 02:14N 40°43' E 018°54'1918.8
2017-Oct-19 01:13N 40°24' E 018°57'4418.3
2017-Oct-18 22:48N 39°42' E 019°15'718.4
2017-Oct-18 22:25N 39°36' E 019°19'4717.8
2017-Oct-18 19:45N 38°53' E 019°47'517.3
2017-Oct-18 19:29N 38°49' E 019°50'817.3
2017-Oct-18 19:00N 38°42' E 019°54'3017.6
2017-Oct-18 17:17N 38°15' E 020°12'517.6
2017-Oct-18 17:00N 38°11' E 020°16'169 7.9
2017-Oct-17 19:36N 37°26' E 023°42'221.0
2017-Oct-17 19:30N 37°28' E 023°42'1121.2
2017-Oct-17 19:00N 37°39' E 023°42'1021.1
2017-Oct-17 18:30N 37°49' E 023°38'815.1
2017-Oct-17 18:00N 37°56' E 023°37'0 0.8
2017-Oct-17 17:29N 37°56' E 023°38'0 0.1
2017-Oct-17 16:58N 37°56' E 023°38'0 0.1
2017-Oct-17 16:28N 37°56' E 023°38'0 0.0
2017-Oct-17 15:58N 37°56' E 023°38'0 0.0
2017-Oct-17 11:53N 37°56' E 023°38'0 0.0
2017-Oct-17 08:58N 37°56' E 023°38'0 0.0
2017-Oct-17 08:22N 37°56' E 023°38'0 0.0
2017-Oct-17 07:50N 37°56' E 023°38'0 0.0
2017-Oct-17 07:25N 37°56' E 023°38'0 0.0
2017-Oct-17 06:56N 37°56' E 023°38'0 0.0
2017-Oct-17 06:29N 37°56' E 023°38'0 0.0
2017-Oct-17 05:58N 37°56' E 023°38'0 0.0
2017-Oct-17 05:22N 37°56' E 023°38'0 0.0
2017-Oct-17 04:58N 37°56' E 023°38'1 3.2
2017-Oct-17 04:30N 37°56' E 023°36'3 5.7
2017-Oct-17 04:00N 37°53' E 023°38'917.5
2017-Oct-17 03:30N 37°45' E 023°43'917.0
2017-Oct-17 03:00N 37°37' E 023°46'12614.0
2017-Oct-16 18:00N 36°42' E 021°24'13522.5 350 / 91025.0 21.016.421.0
2017-Oct-16 12:00N 38°30' E 019°42'4718.6 010 / 51025.0 22.816.222.0
2017-Oct-16 09:29N 39°15' E 019°25'1021.1
2017-Oct-16 09:00N 39°24' E 019°20'1021.0
2017-Oct-16 08:30N 39°34' E 019°14'1121.1
2017-Oct-16 07:59N 39°44' E 019°09'1020.9
2017-Oct-16 07:31N 39°53' E 019°04'1121.3
2017-Oct-16 07:00N 40°03' E 018°59'1121.4
2017-Oct-16 06:30N 40°13' E 018°53'1521.1
2017-Oct-16 05:49N 40°25' E 018°43'721.0
2017-Oct-16 05:30N 40°31' E 018°38'1121.4
2017-Oct-16 05:00N 40°39' E 018°30'6721.3
2017-Oct-16 01:52N 41°33' E 017°37'821.0
2017-Oct-16 01:31N 41°39' E 017°31'1020.9
2017-Oct-16 01:00N 41°47' E 017°23'1320.9
2017-Oct-16 00:23N 41°58' E 017°13'7721.0
2017-Oct-15 20:43N 42°47' E 015°52'6720.9
2017-Oct-15 17:31N 43°28' E 014°40'220.8
2017-Oct-15 17:25N 43°30' E 014°39'2420.6
2017-Oct-15 16:16N 43°50' E 014°20'720.6
2017-Oct-15 15:56N 43°55' E 014°14'920.6
2017-Oct-15 15:29N 44°02' E 014°06'1120.8
2017-Oct-15 14:56N 44°12' E 013°57'2520.8
2017-Oct-15 13:45N 44°32' E 013°38'720.8
2017-Oct-15 13:25N 44°38' E 013°33'920.8
2017-Oct-15 13:00N 44°45' E 013°26'1020.7
2017-Oct-15 12:31N 44°54' E 013°18'1020.6
2017-Oct-15 12:00N 45°01' E 013°08'1020.6
2017-Oct-15 11:30N 45°08' E 012°57'1020.5
2017-Oct-15 11:00N 45°14' E 012°45'1019.9
2017-Oct-15 10:30N 45°21' E 012°35'714.2
2017-Oct-15 10:00N 45°25' E 012°26'3 5.8
2017-Oct-15 09:30N 45°25' E 012°22'3 5.4
2017-Oct-15 09:00N 45°26' E 012°19'0 0.8
2017-Oct-15 08:28N 45°26' E 012°19'0 0.0
2017-Oct-15 07:58N 45°26' E 012°19'0 0.0
2017-Oct-15 07:28N 45°26' E 012°19'0 0.0
2017-Oct-15 06:58N 45°26' E 012°19'0 0.0
2017-Oct-15 06:28N 45°26' E 012°19'0 0.0
2017-Oct-15 05:58N 45°26' E 012°19'0 0.0
2017-Oct-15 05:28N 45°26' E 012°19'0 0.0
2017-Oct-15 04:58N 45°26' E 012°19'0 0.0
2017-Oct-15 04:28N 45°26' E 012°19'0 0.0
2017-Oct-15 03:58N 45°26' E 012°19'0 0.0
2017-Oct-15 03:28N 45°26' E 012°19'0 0.0
2017-Oct-15 02:58N 45°26' E 012°19'0 0.0
2017-Oct-15 02:28N 45°26' E 012°19'0 0.0
2017-Oct-15 01:58N 45°26' E 012°19'0 0.0
2017-Oct-15 01:28N 45°26' E 012°19'0 0.0
2017-Oct-15 00:58N 45°26' E 012°19'0 0.0
2017-Oct-15 00:28N 45°26' E 012°19'0 0.0
2017-Oct-14 23:58N 45°26' E 012°19'0 0.0
2017-Oct-14 23:28N 45°26' E 012°19'0 0.0
2017-Oct-14 22:58N 45°26' E 012°19'0 0.0
2017-Oct-14 22:28N 45°26' E 012°19'0 0.0
2017-Oct-14 21:58N 45°26' E 012°19'0 0.0
2017-Oct-14 21:28N 45°26' E 012°19'0 0.0
2017-Oct-14 20:58N 45°26' E 012°19'0 0.0
2017-Oct-14 20:28N 45°26' E 012°19'0 0.0
2017-Oct-14 19:58N 45°26' E 012°19'0 0.0
2017-Oct-14 19:28N 45°26' E 012°19'0 0.1
2017-Oct-14 18:58N 45°26' E 012°19'0 0.0
2017-Oct-14 18:28N 45°26' E 012°19'0 0.0
2017-Oct-14 17:58N 45°26' E 012°19'0 0.0
2017-Oct-14 17:28N 45°26' E 012°19'0 0.1
2017-Oct-14 16:58N 45°26' E 012°19'0 0.0
2017-Oct-14 16:28N 45°26' E 012°19'0 0.0
2017-Oct-14 15:58N 45°26' E 012°19'0 0.0
2017-Oct-14 15:28N 45°26' E 012°19'0 0.0
2017-Oct-14 14:58N 45°26' E 012°19'0 1.1
2017-Oct-14 14:30N 45°26' E 012°19'3 5.2
2017-Oct-14 13:59N 45°25' E 012°22'3 7.2
2017-Oct-14 13:30N 45°25' E 012°27'1 2.1
2017-Oct-14 13:00N 45°24' E 012°29'0 0.0
2017-Oct-14 12:30N 45°24' E 012°29'0 0.1
2017-Oct-14 12:00N 45°24' E 012°29'0 0.0
2017-Oct-14 11:30N 45°24' E 012°29'0 0.1
2017-Oct-14 11:00N 45°24' E 012°29'0 0.2
2017-Oct-14 10:30N 45°24' E 012°29'0 0.1
2017-Oct-14 10:00N 45°24' E 012°29'0 0.5
2017-Oct-14 09:30N 45°25' E 012°29'0 0.2
2017-Oct-14 09:00N 45°25' E 012°29'0 0.2
2017-Oct-14 08:30N 45°25' E 012°29'0 0.1
2017-Oct-14 08:00N 45°25' E 012°29'0 0.1
2017-Oct-14 07:30N 45°25' E 012°29'0 0.1
2017-Oct-14 07:00N 45°25' E 012°29'0 0.1
2017-Oct-14 06:30N 45°25' E 012°29'0 0.1
2017-Oct-14 06:00N 45°25' E 012°29'0 0.1
2017-Oct-14 05:30N 45°25' E 012°29'0 0.0
2017-Oct-14 05:00N 45°25' E 012°29'0 0.3
2017-Oct-14 04:30N 45°25' E 012°29'0 0.0
2017-Oct-14 04:00N 45°25' E 012°29'0 0.2
2017-Oct-14 03:30N 45°25' E 012°29'4 7.6
2017-Oct-14 03:00N 45°22' E 012°33'816.7
2017-Oct-14 02:30N 45°16' E 012°41'816.6
2017-Oct-14 02:00N 45°11' E 012°51'816.7
2017-Oct-14 01:30N 45°07' E 013°01'816.7
2017-Oct-14 01:00N 45°02' E 013°11'816.5
2017-Oct-14 00:30N 44°57' E 013°20'816.8
2017-Oct-14 00:00N 44°50' E 013°26'816.7
2017-Oct-13 23:30N 44°43' E 013°33'816.9
2017-Oct-13 23:00N 44°37' E 013°40'816.9
2017-Oct-13 22:30N 44°30' E 013°47'816.9
2017-Oct-13 22:00N 44°22' E 013°53'816.8
2017-Oct-13 21:30N 44°15' E 013°60'916.8
2017-Oct-13 21:00N 44°08' E 014°06'816.7
2017-Oct-13 20:30N 44°02' E 014°13'35016.8
2017-Oct-12 23:37N 39°36' E 019°18'216.8
2017-Oct-12 23:30N 39°34' E 019°20'3316.8
2017-Oct-12 21:32N 39°05' E 019°40'117.0
2017-Oct-12 21:29N 39°04' E 019°40'2516.5
2017-Oct-12 20:00N 38°42' E 019°54'7915.9 320 / 151022.0 20.013.521.0
2017-Oct-12 15:00N 37°42' E 021°00'171 8.1 310 / 111022.0 22.017.521.0
2017-Oct-11 18:00N 36°18' E 024°06'63 7.0 010 / 151020.0 20.013.521.0
2017-Oct-11 09:00N 36°24' E 025°24'50 3.5 320 / 201019.0 20.011.620.0
2017-Oct-10 18:30N 37°08' E 024°54'4 8.8
2017-Oct-10 18:00N 37°12' E 024°55'4 8.5
2017-Oct-10 17:30N 37°16' E 024°57'4 8.7
2017-Oct-10 17:00N 37°19' E 025°01'4 8.8
2017-Oct-10 16:30N 37°21' E 025°05'4 8.8
2017-Oct-10 16:00N 37°25' E 025°09'4 7.9
2017-Oct-10 15:30N 37°28' E 025°12'4 8.8
2017-Oct-10 15:00N 37°28' E 025°18'1 1.1
2017-Oct-10 14:00N 37°28' E 025°19'0 0.0
2017-Oct-10 13:30N 37°28' E 025°19'0 0.0
2017-Oct-10 13:00N 37°28' E 025°19'0 0.0
2017-Oct-10 12:30N 37°28' E 025°19'0 0.0
2017-Oct-10 12:00N 37°28' E 025°19'0 0.0
2017-Oct-10 11:30N 37°28' E 025°19'0 0.0
2017-Oct-10 10:57N 37°28' E 025°19'0 0.0
2017-Oct-10 10:30N 37°28' E 025°19'0 0.0
2017-Oct-10 09:57N 37°28' E 025°19'0 0.0
2017-Oct-10 09:30N 37°28' E 025°19'0 0.0
2017-Oct-10 09:00N 37°28' E 025°19'0 0.0
2017-Oct-10 08:30N 37°28' E 025°19'0 0.0
2017-Oct-10 07:57N 37°28' E 025°19'0 0.0
2017-Oct-10 07:30N 37°28' E 025°19'0 0.0
2017-Oct-10 07:00N 37°28' E 025°19'0 0.0
2017-Oct-10 06:30N 37°28' E 025°19'0 0.0
2017-Oct-10 06:00N 37°28' E 025°19'0 0.0
2017-Oct-10 05:27N 37°28' E 025°19'0 0.0
2017-Oct-10 05:00N 37°28' E 025°19'0 0.0
2017-Oct-10 04:30N 37°28' E 025°19'0 0.0
2017-Oct-10 04:00N 37°28' E 025°19'0 0.4
2017-Oct-10 03:30N 37°28' E 025°19'510.3
2017-Oct-10 03:00N 37°28' E 025°13'816.5
2017-Oct-10 02:30N 37°22' E 025°06'816.6
2017-Oct-10 02:00N 37°16' E 024°58'  
Track history (hours):
 
Tides and Currents Weather Stations Pressure Air Temp Water Temp Dewpoint Dewpoint Depression Visibility Wind Speed Wind Dir Waves Ship Positions

Rhapsody Of The Seas

Last reported at 2017-Oct-19 02:14 UTC. Time now 2017-Oct-20 19:50 UTC.
Position N 40°43' E 018°54'.

Type: Passenger vessel. MMSI: 311805000.

Date/timePositionNaut miles runAvg speedWind from/ knotsBaromVisibWave heightAir tempDewpointWater temp
2017-Oct-19 02:14N 40°43' E 018°54'1918.8
2017-Oct-19 01:13N 40°24' E 018°57'4418.3
2017-Oct-18 22:48N 39°42' E 019°15'718.4
2017-Oct-18 22:25N 39°36' E 019°19'4717.8
2017-Oct-18 19:45N 38°53' E 019°47'517.3
2017-Oct-18 19:29N 38°49' E 019°50'817.3
2017-Oct-18 19:00N 38°42' E 019°54'3017.6
2017-Oct-18 17:17N 38°15' E 020°12'517.6
2017-Oct-18 17:00N 38°11' E 020°16'169 7.9
2017-Oct-17 19:36N 37°26' E 023°42'221.0
2017-Oct-17 19:30N 37°28' E 023°42'1121.2
2017-Oct-17 19:00N 37°39' E 023°42'1021.1
2017-Oct-17 18:30N 37°49' E 023°38'815.1
2017-Oct-17 18:00N 37°56' E 023°37'0 0.8
2017-Oct-17 17:29N 37°56' E 023°38'0 0.1
2017-Oct-17 16:58N 37°56' E 023°38'0 0.1
2017-Oct-17 16:28N 37°56' E 023°38'0 0.0
2017-Oct-17 15:58N 37°56' E 023°38'0 0.0
2017-Oct-17 11:53N 37°56' E 023°38'0 0.0
2017-Oct-17 08:58N 37°56' E 023°38'0 0.0
2017-Oct-17 08:22N 37°56' E 023°38'0 0.0
2017-Oct-17 07:50N 37°56' E 023°38'0 0.0
2017-Oct-17 07:25N 37°56' E 023°38'0 0.0
2017-Oct-17 06:56N 37°56' E 023°38'0 0.0
2017-Oct-17 06:29N 37°56' E 023°38'0 0.0
2017-Oct-17 05:58N 37°56' E 023°38'0 0.0
2017-Oct-17 05:22N 37°56' E 023°38'0 0.0
2017-Oct-17 04:58N 37°56' E 023°38'1 3.2
2017-Oct-17 04:30N 37°56' E 023°36'3 5.7
2017-Oct-17 04:00N 37°53' E 023°38'917.5
2017-Oct-17 03:30N 37°45' E 023°43'917.0
2017-Oct-17 03:00N 37°37' E 023°46'12614.0
2017-Oct-16 18:00N 36°42' E 021°24'13522.5 350 / 91025.0 21.016.421.0
2017-Oct-16 12:00N 38°30' E 019°42'4718.6 010 / 51025.0 22.816.222.0
2017-Oct-16 09:29N 39°15' E 019°25'1021.1
2017-Oct-16 09:00N 39°24' E 019°20'1021.0
2017-Oct-16 08:30N 39°34' E 019°14'1121.1
2017-Oct-16 07:59N 39°44' E 019°09'1020.9
2017-Oct-16 07:31N 39°53' E 019°04'1121.3
2017-Oct-16 07:00N 40°03' E 018°59'1121.4
2017-Oct-16 06:30N 40°13' E 018°53'1521.1
2017-Oct-16 05:49N 40°25' E 018°43'721.0
2017-Oct-16 05:30N 40°31' E 018°38'1121.4
2017-Oct-16 05:00N 40°39' E 018°30'6721.3
2017-Oct-16 01:52N 41°33' E 017°37'821.0
2017-Oct-16 01:31N 41°39' E 017°31'1020.9
2017-Oct-16 01:00N 41°47' E 017°23'1320.9
2017-Oct-16 00:23N 41°58' E 017°13'7721.0
2017-Oct-15 20:43N 42°47' E 015°52'6720.9
2017-Oct-15 17:31N 43°28' E 014°40'220.8
2017-Oct-15 17:25N 43°30' E 014°39'2420.6
2017-Oct-15 16:16N 43°50' E 014°20'720.6
2017-Oct-15 15:56N 43°55' E 014°14'920.6
2017-Oct-15 15:29N 44°02' E 014°06'1120.8
2017-Oct-15 14:56N 44°12' E 013°57'2520.8
2017-Oct-15 13:45N 44°32' E 013°38'720.8
2017-Oct-15 13:25N 44°38' E 013°33'920.8
2017-Oct-15 13:00N 44°45' E 013°26'1020.7
2017-Oct-15 12:31N 44°54' E 013°18'1020.6
2017-Oct-15 12:00N 45°01' E 013°08'1020.6
2017-Oct-15 11:30N 45°08' E 012°57'1020.5
2017-Oct-15 11:00N 45°14' E 012°45'1019.9
2017-Oct-15 10:30N 45°21' E 012°35'714.2
2017-Oct-15 10:00N 45°25' E 012°26'3 5.8
2017-Oct-15 09:30N 45°25' E 012°22'3 5.4
2017-Oct-15 09:00N 45°26' E 012°19'0 0.8
2017-Oct-15 08:28N 45°26' E 012°19'0 0.0
2017-Oct-15 07:58N 45°26' E 012°19'0 0.0
2017-Oct-15 07:28N 45°26' E 012°19'0 0.0
2017-Oct-15 06:58N 45°26' E 012°19'0 0.0
2017-Oct-15 06:28N 45°26' E 012°19'0 0.0
2017-Oct-15 05:58N 45°26' E 012°19'0 0.0
2017-Oct-15 05:28N 45°26' E 012°19'0 0.0
2017-Oct-15 04:58N 45°26' E 012°19'0 0.0
2017-Oct-15 04:28N 45°26' E 012°19'0 0.0
2017-Oct-15 03:58N 45°26' E 012°19'0 0.0
2017-Oct-15 03:28N 45°26' E 012°19'0 0.0
2017-Oct-15 02:58N 45°26' E 012°19'0 0.0
2017-Oct-15 02:28N 45°26' E 012°19'0 0.0
2017-Oct-15 01:58N 45°26' E 012°19'0 0.0
2017-Oct-15 01:28N 45°26' E 012°19'0 0.0
2017-Oct-15 00:58N 45°26' E 012°19'0 0.0
2017-Oct-15 00:28N 45°26' E 012°19'0 0.0
2017-Oct-14 23:58N 45°26' E 012°19'0 0.0
2017-Oct-14 23:28N 45°26' E 012°19'0 0.0
2017-Oct-14 22:58N 45°26' E 012°19'0 0.0
2017-Oct-14 22:28N 45°26' E 012°19'0 0.0
2017-Oct-14 21:58N 45°26' E 012°19'0 0.0
2017-Oct-14 21:28N 45°26' E 012°19'0 0.0
2017-Oct-14 20:58N 45°26' E 012°19'0 0.0
2017-Oct-14 20:28N 45°26' E 012°19'0 0.0
2017-Oct-14 19:58N 45°26' E 012°19'0 0.0
2017-Oct-14 19:28N 45°26' E 012°19'0 0.1
2017-Oct-14 18:58N 45°26' E 012°19'0 0.0
2017-Oct-14 18:28N 45°26' E 012°19'0 0.0
2017-Oct-14 17:58N 45°26' E 012°19'0 0.0
2017-Oct-14 17:28N 45°26' E 012°19'0 0.1
2017-Oct-14 16:58N 45°26' E 012°19'0 0.0
2017-Oct-14 16:28N 45°26' E 012°19'0 0.0
2017-Oct-14 15:58N 45°26' E 012°19'0 0.0
2017-Oct-14 15:28N 45°26' E 012°19'0 0.0
2017-Oct-14 14:58N 45°26' E 012°19'0 1.1
2017-Oct-14 14:30N 45°26' E 012°19'3 5.2
2017-Oct-14 13:59N 45°25' E 012°22'3 7.2
2017-Oct-14 13:30N 45°25' E 012°27'1 2.1
2017-Oct-14 13:00N 45°24' E 012°29'0 0.0
2017-Oct-14 12:30N 45°24' E 012°29'0 0.1
2017-Oct-14 12:00N 45°24' E 012°29'0 0.0
2017-Oct-14 11:30N 45°24' E 012°29'0 0.1
2017-Oct-14 11:00N 45°24' E 012°29'0 0.2
2017-Oct-14 10:30N 45°24' E 012°29'0 0.1
2017-Oct-14 10:00N 45°24' E 012°29'0 0.5
2017-Oct-14 09:30N 45°25' E 012°29'0 0.2
2017-Oct-14 09:00N 45°25' E 012°29'0 0.2
2017-Oct-14 08:30N 45°25' E 012°29'0 0.1
2017-Oct-14 08:00N 45°25' E 012°29'0 0.1
2017-Oct-14 07:30N 45°25' E 012°29'0 0.1
2017-Oct-14 07:00N 45°25' E 012°29'0 0.1
2017-Oct-14 06:30N 45°25' E 012°29'0 0.1
2017-Oct-14 06:00N 45°25' E 012°29'0 0.1
2017-Oct-14 05:30N 45°25' E 012°29'0 0.0
2017-Oct-14 05:00N 45°25' E 012°29'0 0.3
2017-Oct-14 04:30N 45°25' E 012°29'0 0.0
2017-Oct-14 04:00N 45°25' E 012°29'0 0.2
2017-Oct-14 03:30N 45°25' E 012°29'4 7.6
2017-Oct-14 03:00N 45°22' E 012°33'816.7
2017-Oct-14 02:30N 45°16' E 012°41'816.6
2017-Oct-14 02:00N 45°11' E 012°51'816.7
2017-Oct-14 01:30N 45°07' E 013°01'816.7
2017-Oct-14 01:00N 45°02' E 013°11'816.5
2017-Oct-14 00:30N 44°57' E 013°20'816.8
2017-Oct-14 00:00N 44°50' E 013°26'816.7
2017-Oct-13 23:30N 44°43' E 013°33'816.9
2017-Oct-13 23:00N 44°37' E 013°40'816.9
2017-Oct-13 22:30N 44°30' E 013°47'816.9
2017-Oct-13 22:00N 44°22' E 013°53'816.8
2017-Oct-13 21:30N 44°15' E 013°60'916.8
2017-Oct-13 21:00N 44°08' E 014°06'816.7
2017-Oct-13 20:30N 44°02' E 014°13'35016.8
2017-Oct-12 23:37N 39°36' E 019°18'216.8
2017-Oct-12 23:30N 39°34' E 019°20'3316.8
2017-Oct-12 21:32N 39°05' E 019°40'117.0
2017-Oct-12 21:29N 39°04' E 019°40'2516.5
2017-Oct-12 20:00N 38°42' E 019°54'7915.9 320 / 151022.0 20.013.521.0
2017-Oct-12 15:00N 37°42' E 021°00'171 8.1 310 / 111022.0 22.017.521.0
2017-Oct-11 18:00N 36°18' E 024°06'63 7.0 010 / 151020.0 20.013.521.0
2017-Oct-11 09:00N 36°24' E 025°24'50 3.5 320 / 201019.0 20.011.620.0
2017-Oct-10 18:30N 37°08' E 024°54'4 8.8
2017-Oct-10 18:00N 37°12' E 024°55'4 8.5
2017-Oct-10 17:30N 37°16' E 024°57'4 8.7
2017-Oct-10 17:00N 37°19' E 025°01'4 8.8
2017-Oct-10 16:30N 37°21' E 025°05'4 8.8
2017-Oct-10 16:00N 37°25' E 025°09'4 7.9
2017-Oct-10 15:30N 37°28' E 025°12'4 8.8
2017-Oct-10 15:00N 37°28' E 025°18'1 1.1
2017-Oct-10 14:00N 37°28' E 025°19'0 0.0
2017-Oct-10 13:30N 37°28' E 025°19'0 0.0
2017-Oct-10 13:00N 37°28' E 025°19'0 0.0
2017-Oct-10 12:30N 37°28' E 025°19'0 0.0
2017-Oct-10 12:00N 37°28' E 025°19'0 0.0
2017-Oct-10 11:30N 37°28' E 025°19'0 0.0
2017-Oct-10 10:57N 37°28' E 025°19'0 0.0
2017-Oct-10 10:30N 37°28' E 025°19'0 0.0
2017-Oct-10 09:57N 37°28' E 025°19'0 0.0
2017-Oct-10 09:30N 37°28' E 025°19'0 0.0
2017-Oct-10 09:00N 37°28' E 025°19'0 0.0
2017-Oct-10 08:30N 37°28' E 025°19'0 0.0
2017-Oct-10 07:57N 37°28' E 025°19'0 0.0
2017-Oct-10 07:30N 37°28' E 025°19'0 0.0
2017-Oct-10 07:00N 37°28' E 025°19'0 0.0
2017-Oct-10 06:30N 37°28' E 025°19'0 0.0
2017-Oct-10 06:00N 37°28' E 025°19'0 0.0
2017-Oct-10 05:27N 37°28' E 025°19'0 0.0
2017-Oct-10 05:00N 37°28' E 025°19'0 0.0
2017-Oct-10 04:30N 37°28' E 025°19'0 0.0
2017-Oct-10 04:00N 37°28' E 025°19'0 0.4
2017-Oct-10 03:30N 37°28' E 025°19'510.3
2017-Oct-10 03:00N 37°28' E 025°13'816.5
2017-Oct-10 02:30N 37°22' E 025°06'816.6
2017-Oct-10 02:00N 37°16' E 024°58'  

Dump ship's entire track history